Artemis — SWZE — position and weather

sailwx.info

Track history (hours):
 
Tides and Currents Weather Stations Pressure Air Temp Water Temp Dewpoint Dewpoint Depression Visibility Wind Speed Wind Dir Waves Ship Positions

Artemis

Last reported at 2017-May-23 08:46 UTC. Time now 2017-May-23 17:05 UTC.
Position N 37°31' E 024°44'.

Length 89 m; draft 3.4 m.

Type: Ship. MMSI: 237026300.

Date/timePositionNaut miles runAvg speedWind from/ knotsBaromVisibWave heightAir tempDewpointWater temp
2017-May-23 08:46N 37°31' E 024°44'414.5
2017-May-23 08:31N 37°31' E 024°48'714.0
2017-May-23 08:01N 37°29' E 024°57'3 5.7
2017-May-23 07:30N 37°26' E 024°57'5 9.9
2017-May-23 06:58N 37°31' E 024°54'714.7
2017-May-23 06:29N 37°31' E 024°45'31 3.5
2017-May-22 21:43N 37°38' E 024°07'30 7.3
2017-May-22 17:36N 37°31' E 024°44'114.5
2017-May-22 17:30N 37°31' E 024°45'814.7
2017-May-22 16:56N 37°30' E 024°56'4 8.7
2017-May-22 16:29N 37°26' E 024°57'5 9.8
2017-May-22 16:00N 37°22' E 024°57'714.4
2017-May-22 15:30N 37°18' E 024°49'13 1.8
2017-May-22 07:58N 37°06' E 024°57'612.5
2017-May-22 07:30N 37°07' E 025°04'4 7.2
2017-May-22 06:55N 37°05' E 025°08'410.8
2017-May-22 06:30N 37°04' E 025°03'17 1.3
2017-May-21 17:29N 37°16' E 024°47'814.4
2017-May-21 16:56N 37°21' E 024°55'512.4
2017-May-21 16:30N 37°25' E 024°58'3 6.5
2017-May-21 16:00N 37°28' E 024°57'713.2
2017-May-21 15:30N 37°31' E 024°50'29 3.0
2017-May-21 05:49N 37°03' E 025°01'414.5
2017-May-21 05:31N 37°06' E 025°06'2 0.6
2017-May-21 01:09N 37°05' E 025°09'1 9.9
2017-May-21 01:00N 37°06' E 025°07'31 3.2
2017-May-20 15:11N 37°31' E 024°44'314.3
2017-May-20 15:01N 37°31' E 024°47'714.2
2017-May-20 14:29N 37°30' E 024°56'8 7.9
2017-May-20 13:30N 37°27' E 025°05'815.5
2017-May-20 13:00N 37°27' E 025°14'3 5.9
2017-May-20 12:30N 37°27' E 025°18'714.4
2017-May-20 12:00N 37°20' E 025°16'714.3
2017-May-20 11:30N 37°14' E 025°12'714.5
2017-May-20 11:00N 37°08' E 025°08'2 3.9
2017-May-20 10:30N 37°06' E 025°07'714.6
2017-May-20 10:01N 37°10' E 025°15'713.5
2017-May-20 09:30N 37°06' E 025°22'3 6.3
2017-May-20 09:00N 37°04' E 025°19'  
2017-May-15 16:19N 37°31' E 024°44'514.8
2017-May-15 16:00N 37°31' E 024°50'713.4
2017-May-15 15:30N 37°28' E 024°57'3 5.8
2017-May-15 15:00N 37°25' E 024°58'611.9
2017-May-15 14:30N 37°20' E 024°54'18 2.4
2017-May-15 06:57N 37°03' E 025°01'613.5
2017-May-15 06:30N 37°05' E 025°08'4 7.3
2017-May-15 06:00N 37°05' E 025°04'17 1.3
2017-May-14 17:15N 37°16' E 024°47'314.5
2017-May-14 17:01N 37°18' E 024°50'714.8
2017-May-14 16:30N 37°23' E 024°57'4 7.3
2017-May-14 16:00N 37°26' E 024°57'611.7
2017-May-14 15:28N 37°31' E 024°52'29 3.0
2017-May-14 05:53N 37°03' E 025°01'514.2
2017-May-14 05:30N 37°06' E 025°07'1 0.4
2017-May-14 01:47N 37°05' E 025°08'311.9
2017-May-14 01:30N 37°05' E 025°04'29 2.9
2017-May-13 15:32N 37°30' E 024°44'013.9
2017-May-13 15:30N 37°30' E 024°44'1013.9
2017-May-13 14:49N 37°30' E 024°56'4 8.9
2017-May-13 14:24N 37°26' E 024°56'1011.5
2017-May-13 13:30N 37°27' E 025°09'714.2
2017-May-13 13:00N 37°28' E 025°18'2 4.6
2017-May-13 12:31N 37°26' E 025°17'714.6
2017-May-13 12:01N 37°19' E 025°14'814.9
2017-May-13 11:30N 37°12' E 025°10'714.0
2017-May-13 11:00N 37°05' E 025°08'1 2.4
2017-May-13 10:30N 37°06' E 025°08'713.7
2017-May-13 10:00N 37°10' E 025°15'713.1
2017-May-13 09:30N 37°06' E 025°22'3 5.3
2017-May-13 09:00N 37°05' E 025°19'  
Track history (hours):
 
Tides and Currents Weather Stations Pressure Air Temp Water Temp Dewpoint Dewpoint Depression Visibility Wind Speed Wind Dir Waves Ship Positions

Artemis

Last reported at 2017-May-23 08:46 UTC. Time now 2017-May-23 17:05 UTC.
Position N 37°31' E 024°44'.

Length 89 m; draft 3.4 m.

Type: Ship. MMSI: 237026300.

Date/timePositionNaut miles runAvg speedWind from/ knotsBaromVisibWave heightAir tempDewpointWater temp
2017-May-23 08:46N 37°31' E 024°44'414.5
2017-May-23 08:31N 37°31' E 024°48'714.0
2017-May-23 08:01N 37°29' E 024°57'3 5.7
2017-May-23 07:30N 37°26' E 024°57'5 9.9
2017-May-23 06:58N 37°31' E 024°54'714.7
2017-May-23 06:29N 37°31' E 024°45'31 3.5
2017-May-22 21:43N 37°38' E 024°07'30 7.3
2017-May-22 17:36N 37°31' E 024°44'114.5
2017-May-22 17:30N 37°31' E 024°45'814.7
2017-May-22 16:56N 37°30' E 024°56'4 8.7
2017-May-22 16:29N 37°26' E 024°57'5 9.8
2017-May-22 16:00N 37°22' E 024°57'714.4
2017-May-22 15:30N 37°18' E 024°49'13 1.8
2017-May-22 07:58N 37°06' E 024°57'612.5
2017-May-22 07:30N 37°07' E 025°04'4 7.2
2017-May-22 06:55N 37°05' E 025°08'410.8
2017-May-22 06:30N 37°04' E 025°03'17 1.3
2017-May-21 17:29N 37°16' E 024°47'814.4
2017-May-21 16:56N 37°21' E 024°55'512.4
2017-May-21 16:30N 37°25' E 024°58'3 6.5
2017-May-21 16:00N 37°28' E 024°57'713.2
2017-May-21 15:30N 37°31' E 024°50'29 3.0
2017-May-21 05:49N 37°03' E 025°01'414.5
2017-May-21 05:31N 37°06' E 025°06'2 0.6
2017-May-21 01:09N 37°05' E 025°09'1 9.9
2017-May-21 01:00N 37°06' E 025°07'31 3.2
2017-May-20 15:11N 37°31' E 024°44'314.3
2017-May-20 15:01N 37°31' E 024°47'714.2
2017-May-20 14:29N 37°30' E 024°56'8 7.9
2017-May-20 13:30N 37°27' E 025°05'815.5
2017-May-20 13:00N 37°27' E 025°14'3 5.9
2017-May-20 12:30N 37°27' E 025°18'714.4
2017-May-20 12:00N 37°20' E 025°16'714.3
2017-May-20 11:30N 37°14' E 025°12'714.5
2017-May-20 11:00N 37°08' E 025°08'2 3.9
2017-May-20 10:30N 37°06' E 025°07'714.6
2017-May-20 10:01N 37°10' E 025°15'713.5
2017-May-20 09:30N 37°06' E 025°22'3 6.3
2017-May-20 09:00N 37°04' E 025°19'  
2017-May-15 16:19N 37°31' E 024°44'514.8
2017-May-15 16:00N 37°31' E 024°50'713.4
2017-May-15 15:30N 37°28' E 024°57'3 5.8
2017-May-15 15:00N 37°25' E 024°58'611.9
2017-May-15 14:30N 37°20' E 024°54'18 2.4
2017-May-15 06:57N 37°03' E 025°01'613.5
2017-May-15 06:30N 37°05' E 025°08'4 7.3
2017-May-15 06:00N 37°05' E 025°04'17 1.3
2017-May-14 17:15N 37°16' E 024°47'314.5
2017-May-14 17:01N 37°18' E 024°50'714.8
2017-May-14 16:30N 37°23' E 024°57'4 7.3
2017-May-14 16:00N 37°26' E 024°57'611.7
2017-May-14 15:28N 37°31' E 024°52'29 3.0
2017-May-14 05:53N 37°03' E 025°01'514.2
2017-May-14 05:30N 37°06' E 025°07'1 0.4
2017-May-14 01:47N 37°05' E 025°08'311.9
2017-May-14 01:30N 37°05' E 025°04'29 2.9
2017-May-13 15:32N 37°30' E 024°44'013.9
2017-May-13 15:30N 37°30' E 024°44'1013.9
2017-May-13 14:49N 37°30' E 024°56'4 8.9
2017-May-13 14:24N 37°26' E 024°56'1011.5
2017-May-13 13:30N 37°27' E 025°09'714.2
2017-May-13 13:00N 37°28' E 025°18'2 4.6
2017-May-13 12:31N 37°26' E 025°17'714.6
2017-May-13 12:01N 37°19' E 025°14'814.9
2017-May-13 11:30N 37°12' E 025°10'714.0
2017-May-13 11:00N 37°05' E 025°08'1 2.4
2017-May-13 10:30N 37°06' E 025°08'713.7
2017-May-13 10:00N 37°10' E 025°15'713.1
2017-May-13 09:30N 37°06' E 025°22'3 5.3
2017-May-13 09:00N 37°05' E 025°19'  

Dump ship's entire track history